sensor_id;sensor_type;location;lat;lon;timestamp;P1;durP1;ratioP1;P2;durP2;ratioP2
48526;SDS011;34317;51.660;5.824;2022-08-23T00:02:00;7.43;;;4.70;;
48526;SDS011;34317;51.660;5.824;2022-08-23T00:04:44;9.27;;;4.95;;
48526;SDS011;34317;51.660;5.824;2022-08-23T00:07:32;7.53;;;5.00;;
48526;SDS011;34317;51.660;5.824;2022-08-23T00:10:04;7.80;;;4.93;;
48526;SDS011;34317;51.660;5.824;2022-08-23T00:12:36;7.88;;;4.85;;
48526;SDS011;34317;51.660;5.824;2022-08-23T00:15:04;7.28;;;4.40;;
48526;SDS011;34317;51.660;5.824;2022-08-23T00:17:35;7.22;;;4.38;;
48526;SDS011;34317;51.660;5.824;2022-08-23T00:20:04;6.60;;;4.57;;
48526;SDS011;34317;51.660;5.824;2022-08-23T00:22:33;8.07;;;4.53;;
48526;SDS011;34317;51.660;5.824;2022-08-23T00:25:00;8.20;;;4.70;;
48526;SDS011;34317;51.660;5.824;2022-08-23T00:27:28;8.20;;;4.97;;
48526;SDS011;34317;51.660;5.824;2022-08-23T00:29:55;7.45;;;4.90;;
48526;SDS011;34317;51.660;5.824;2022-08-23T00:32:24;8.30;;;5.00;;
48526;SDS011;34317;51.660;5.824;2022-08-23T00:34:53;8.18;;;4.95;;
48526;SDS011;34317;51.660;5.824;2022-08-23T00:37:21;6.85;;;4.88;;
48526;SDS011;34317;51.660;5.824;2022-08-23T00:39:49;10.32;;;5.13;;
48526;SDS011;34317;51.660;5.824;2022-08-23T00:48:27;7.45;;;5.18;;
48526;SDS011;34317;51.660;5.824;2022-08-23T00:51:03;7.18;;;5.07;;
48526;SDS011;34317;51.660;5.824;2022-08-23T00:53:33;8.05;;;4.82;;
48526;SDS011;34317;51.660;5.824;2022-08-23T00:56:05;7.10;;;4.78;;
48526;SDS011;34317;51.660;5.824;2022-08-23T00:58:35;12.40;;;4.78;;
48526;SDS011;34317;51.660;5.824;2022-08-23T01:01:03;7.13;;;4.88;;
48526;SDS011;34317;51.660;5.824;2022-08-23T01:03:32;8.85;;;4.80;;
48526;SDS011;34317;51.660;5.824;2022-08-23T01:06:07;9.90;;;5.22;;
48526;SDS011;34317;51.660;5.824;2022-08-23T01:08:44;8.05;;;5.50;;
48526;SDS011;34317;51.660;5.824;2022-08-23T01:11:24;10.00;;;6.43;;
48526;SDS011;34317;51.660;5.824;2022-08-23T01:14:14;9.73;;;5.75;;
48526;SDS011;34317;51.660;5.824;2022-08-23T01:16:49;11.02;;;6.22;;
48526;SDS011;34317;51.660;5.824;2022-08-23T01:19:26;9.80;;;6.00;;
48526;SDS011;34317;51.660;5.824;2022-08-23T01:22:04;7.93;;;5.50;;
48526;SDS011;34317;51.660;5.824;2022-08-23T01:24:39;9.45;;;5.57;;
48526;SDS011;34317;51.660;5.824;2022-08-23T01:27:28;7.55;;;5.70;;
48526;SDS011;34317;51.660;5.824;2022-08-23T01:29:57;8.68;;;5.50;;
48526;SDS011;34317;51.660;5.824;2022-08-23T01:32:25;7.78;;;5.47;;
48526;SDS011;34317;51.660;5.824;2022-08-23T01:34:53;6.82;;;5.60;;
48526;SDS011;34317;51.660;5.824;2022-08-23T01:37:20;7.95;;;5.55;;
48526;SDS011;34317;51.660;5.824;2022-08-23T01:39:49;9.35;;;5.97;;
48526;SDS011;34317;51.660;5.824;2022-08-23T01:42:16;9.70;;;5.60;;
48526;SDS011;34317;51.660;5.824;2022-08-23T01:44:43;6.43;;;5.18;;
48526;SDS011;34317;51.660;5.824;2022-08-23T01:47:10;6.70;;;5.53;;
48526;SDS011;34317;51.660;5.824;2022-08-23T01:49:38;7.60;;;5.78;;
48526;SDS011;34317;51.660;5.824;2022-08-23T01:52:05;8.30;;;5.78;;
48526;SDS011;34317;51.660;5.824;2022-08-23T01:54:32;7.32;;;5.85;;
48526;SDS011;34317;51.660;5.824;2022-08-23T01:56:59;9.88;;;6.00;;
48526;SDS011;34317;51.660;5.824;2022-08-23T01:59:27;8.77;;;5.85;;
48526;SDS011;34317;51.660;5.824;2022-08-23T02:01:54;9.13;;;6.32;;
48526;SDS011;34317;51.660;5.824;2022-08-23T02:04:22;9.75;;;6.00;;
48526;SDS011;34317;51.660;5.824;2022-08-23T02:06:49;8.75;;;5.90;;
48526;SDS011;34317;51.660;5.824;2022-08-23T02:09:20;8.82;;;5.57;;
48526;SDS011;34317;51.660;5.824;2022-08-23T02:11:53;7.95;;;5.72;;
48526;SDS011;34317;51.660;5.824;2022-08-23T02:14:21;7.97;;;5.38;;
48526;SDS011;34317;51.660;5.824;2022-08-23T02:16:54;8.10;;;5.47;;
48526;SDS011;34317;51.660;5.824;2022-08-23T02:19:28;7.30;;;5.63;;
48526;SDS011;34317;51.660;5.824;2022-08-23T02:21:56;10.38;;;5.78;;
48526;SDS011;34317;51.660;5.824;2022-08-23T02:24:23;9.25;;;5.82;;
48526;SDS011;34317;51.660;5.824;2022-08-23T02:26:52;7.70;;;5.50;;
48526;SDS011;34317;51.660;5.824;2022-08-23T02:29:25;9.13;;;5.55;;
48526;SDS011;34317;51.660;5.824;2022-08-23T02:31:56;8.27;;;5.93;;
48526;SDS011;34317;51.660;5.824;2022-08-23T02:34:26;7.50;;;5.47;;
48526;SDS011;34317;51.660;5.824;2022-08-23T02:36:54;9.23;;;5.60;;
48526;SDS011;34317;51.660;5.824;2022-08-23T02:39:23;8.07;;;5.80;;
48526;SDS011;34317;51.660;5.824;2022-08-23T02:41:50;8.70;;;5.80;;
48526;SDS011;34317;51.660;5.824;2022-08-23T02:44:18;8.63;;;5.60;;
48526;SDS011;34317;51.660;5.824;2022-08-23T02:46:46;8.25;;;6.20;;
48526;SDS011;34317;51.660;5.824;2022-08-23T02:49:14;8.77;;;5.55;;
48526;SDS011;34317;51.660;5.824;2022-08-23T02:51:41;9.55;;;6.35;;
48526;SDS011;34317;51.660;5.824;2022-08-23T02:54:08;7.70;;;6.15;;
48526;SDS011;34317;51.660;5.824;2022-08-23T02:56:36;7.28;;;5.60;;
48526;SDS011;34317;51.660;5.824;2022-08-23T02:59:04;8.88;;;5.82;;
48526;SDS011;34317;51.660;5.824;2022-08-23T03:01:34;10.55;;;5.57;;
48526;SDS011;34317;51.660;5.824;2022-08-23T03:04:15;9.63;;;5.68;;
48526;SDS011;34317;51.660;5.824;2022-08-23T03:06:42;7.03;;;5.65;;
48526;SDS011;34317;51.660;5.824;2022-08-23T03:09:09;8.95;;;6.05;;
48526;SDS011;34317;51.660;5.824;2022-08-23T03:11:37;10.63;;;6.30;;
48526;SDS011;34317;51.660;5.824;2022-08-23T03:14:08;10.57;;;5.88;;
48526;SDS011;34317;51.660;5.824;2022-08-23T03:16:35;10.02;;;5.82;;
48526;SDS011;34317;51.660;5.824;2022-08-23T03:19:03;10.40;;;6.57;;
48526;SDS011;34317;51.660;5.824;2022-08-23T03:21:30;10.25;;;6.32;;
48526;SDS011;34317;51.660;5.824;2022-08-23T03:23:58;9.45;;;6.15;;
48526;SDS011;34317;51.660;5.824;2022-08-23T03:26:26;8.93;;;6.63;;
48526;SDS011;34317;51.660;5.824;2022-08-23T03:28:54;8.45;;;6.00;;
48526;SDS011;34317;51.660;5.824;2022-08-23T03:31:25;7.40;;;5.93;;
48526;SDS011;34317;51.660;5.824;2022-08-23T03:34:04;10.73;;;6.30;;
48526;SDS011;34317;51.660;5.824;2022-08-23T03:36:33;9.07;;;6.35;;
48526;SDS011;34317;51.660;5.824;2022-08-23T03:39:01;9.52;;;6.57;;
48526;SDS011;34317;51.660;5.824;2022-08-23T03:41:30;9.25;;;6.07;;
48526;SDS011;34317;51.660;5.824;2022-08-23T03:43:57;11.98;;;7.80;;
48526;SDS011;34317;51.660;5.824;2022-08-23T03:46:27;11.02;;;8.38;;
48526;SDS011;34317;51.660;5.824;2022-08-23T03:49:00;11.10;;;7.85;;
48526;SDS011;34317;51.660;5.824;2022-08-23T03:51:37;10.57;;;8.65;;
48526;SDS011;34317;51.660;5.824;2022-08-23T03:54:04;12.15;;;8.27;;
48526;SDS011;34317;51.660;5.824;2022-08-23T03:56:32;12.35;;;8.63;;
48526;SDS011;34317;51.660;5.824;2022-08-23T03:59:06;12.40;;;8.63;;
48526;SDS011;34317;51.660;5.824;2022-08-23T04:01:36;13.30;;;8.33;;
48526;SDS011;34317;51.660;5.824;2022-08-23T04:04:03;12.13;;;8.70;;
48526;SDS011;34317;51.660;5.824;2022-08-23T04:06:32;11.40;;;8.02;;
48526;SDS011;34317;51.660;5.824;2022-08-23T04:08:59;15.00;;;8.77;;
48526;SDS011;34317;51.660;5.824;2022-08-23T04:11:26;13.98;;;8.32;;
48526;SDS011;34317;51.660;5.824;2022-08-23T04:14:02;12.75;;;8.35;;
48526;SDS011;34317;51.660;5.824;2022-08-23T04:16:30;12.20;;;9.27;;
48526;SDS011;34317;51.660;5.824;2022-08-23T04:19:04;13.43;;;8.98;;
48526;SDS011;34317;51.660;5.824;2022-08-23T04:21:41;11.48;;;8.85;;
48526;SDS011;34317;51.660;5.824;2022-08-23T04:24:11;13.98;;;9.20;;
48526;SDS011;34317;51.660;5.824;2022-08-23T04:26:39;12.15;;;8.05;;
48526;SDS011;34317;51.660;5.824;2022-08-23T04:29:09;14.85;;;9.25;;
48526;SDS011;34317;51.660;5.824;2022-08-23T04:31:54;11.93;;;8.95;;
48526;SDS011;34317;51.660;5.824;2022-08-23T04:34:21;14.00;;;9.18;;
48526;SDS011;34317;51.660;5.824;2022-08-23T04:36:54;10.52;;;9.02;;
48526;SDS011;34317;51.660;5.824;2022-08-23T04:39:21;12.48;;;9.10;;
48526;SDS011;34317;51.660;5.824;2022-08-23T04:41:49;14.30;;;9.43;;
48526;SDS011;34317;51.660;5.824;2022-08-23T04:44:40;13.93;;;9.32;;
48526;SDS011;34317;51.660;5.824;2022-08-23T04:47:07;10.65;;;8.70;;
48526;SDS011;34317;51.660;5.824;2022-08-23T04:49:35;14.05;;;9.23;;
48526;SDS011;34317;51.660;5.824;2022-08-23T04:52:02;11.73;;;9.27;;
48526;SDS011;34317;51.660;5.824;2022-08-23T04:54:30;13.38;;;10.10;;
48526;SDS011;34317;51.660;5.824;2022-08-23T04:57:16;11.98;;;8.82;;
48526;SDS011;34317;51.660;5.824;2022-08-23T04:59:44;11.65;;;8.77;;
48526;SDS011;34317;51.660;5.824;2022-08-23T05:02:12;10.75;;;8.65;;
48526;SDS011;34317;51.660;5.824;2022-08-23T05:04:40;11.63;;;9.18;;
48526;SDS011;34317;51.660;5.824;2022-08-23T05:07:08;13.93;;;8.70;;
48526;SDS011;34317;51.660;5.824;2022-08-23T05:09:35;12.77;;;9.13;;
48526;SDS011;34317;51.660;5.824;2022-08-23T05:12:03;13.95;;;9.77;;
48526;SDS011;34317;51.660;5.824;2022-08-23T05:14:31;11.88;;;9.40;;
48526;SDS011;34317;51.660;5.824;2022-08-23T05:16:58;14.57;;;9.40;;
48526;SDS011;34317;51.660;5.824;2022-08-23T05:19:26;13.07;;;10.27;;
48526;SDS011;34317;51.660;5.824;2022-08-23T05:21:53;14.05;;;11.00;;
48526;SDS011;34317;51.660;5.824;2022-08-23T05:24:30;17.05;;;10.52;;
48526;SDS011;34317;51.660;5.824;2022-08-23T05:26:58;14.32;;;10.68;;
48526;SDS011;34317;51.660;5.824;2022-08-23T05:29:25;12.85;;;10.88;;
48526;SDS011;34317;51.660;5.824;2022-08-23T05:31:53;23.17;;;12.38;;
48526;SDS011;34317;51.660;5.824;2022-08-23T05:34:22;14.95;;;11.82;;
48526;SDS011;34317;51.660;5.824;2022-08-23T05:36:52;16.10;;;11.70;;
48526;SDS011;34317;51.660;5.824;2022-08-23T05:39:24;14.75;;;11.13;;
48526;SDS011;34317;51.660;5.824;2022-08-23T05:42:04;13.27;;;11.57;;
48526;SDS011;34317;51.660;5.824;2022-08-23T05:44:32;16.30;;;11.60;;
48526;SDS011;34317;51.660;5.824;2022-08-23T05:47:04;15.95;;;11.75;;
48526;SDS011;34317;51.660;5.824;2022-08-23T05:49:45;14.10;;;11.50;;
48526;SDS011;34317;51.660;5.824;2022-08-23T05:52:13;14.50;;;11.68;;
48526;SDS011;34317;51.660;5.824;2022-08-23T05:54:42;18.27;;;12.07;;
48526;SDS011;34317;51.660;5.824;2022-08-23T05:57:28;14.32;;;11.93;;
48526;SDS011;34317;51.660;5.824;2022-08-23T05:59:55;18.52;;;12.65;;
48526;SDS011;34317;51.660;5.824;2022-08-23T06:02:23;17.30;;;12.10;;
48526;SDS011;34317;51.660;5.824;2022-08-23T06:04:50;14.45;;;11.63;;
48526;SDS011;34317;51.660;5.824;2022-08-23T06:07:23;18.60;;;12.50;;
48526;SDS011;34317;51.660;5.824;2022-08-23T06:09:50;16.30;;;12.38;;
48526;SDS011;34317;51.660;5.824;2022-08-23T06:12:18;16.23;;;12.70;;
48526;SDS011;34317;51.660;5.824;2022-08-23T06:14:45;16.52;;;13.38;;
48526;SDS011;34317;51.660;5.824;2022-08-23T06:17:13;18.48;;;12.57;;
48526;SDS011;34317;51.660;5.824;2022-08-23T06:19:40;18.00;;;13.82;;
48526;SDS011;34317;51.660;5.824;2022-08-23T06:22:18;17.20;;;12.90;;
48526;SDS011;34317;51.660;5.824;2022-08-23T06:24:47;16.23;;;12.75;;
48526;SDS011;34317;51.660;5.824;2022-08-23T06:27:15;17.27;;;13.73;;
48526;SDS011;34317;51.660;5.824;2022-08-23T06:29:42;15.45;;;13.10;;
48526;SDS011;34317;51.660;5.824;2022-08-23T06:32:49;18.40;;;13.37;;
48526;SDS011;34317;51.660;5.824;2022-08-23T06:35:31;17.83;;;13.93;;
48526;SDS011;34317;51.660;5.824;2022-08-23T06:38:28;18.27;;;13.63;;
48526;SDS011;34317;51.660;5.824;2022-08-23T06:41:09;16.55;;;12.90;;
48526;SDS011;34317;51.660;5.824;2022-08-23T06:43:58;18.38;;;14.40;;
48526;SDS011;34317;51.660;5.824;2022-08-23T06:46:46;18.35;;;14.45;;
48526;SDS011;34317;51.660;5.824;2022-08-23T06:49:14;18.42;;;14.05;;
48526;SDS011;34317;51.660;5.824;2022-08-23T06:51:43;17.05;;;13.93;;
48526;SDS011;34317;51.660;5.824;2022-08-23T06:54:17;19.83;;;14.30;;
48526;SDS011;34317;51.660;5.824;2022-08-23T06:57:24;20.17;;;15.35;;
48526;SDS011;34317;51.660;5.824;2022-08-23T07:00:18;17.63;;;15.05;;
48526;SDS011;34317;51.660;5.824;2022-08-23T07:03:07;19.52;;;15.50;;
48526;SDS011;34317;51.660;5.824;2022-08-23T07:05:53;17.52;;;14.13;;
48526;SDS011;34317;51.660;5.824;2022-08-23T07:08:23;17.25;;;13.50;;
48526;SDS011;34317;51.660;5.824;2022-08-23T07:10:51;15.82;;;13.82;;
48526;SDS011;34317;51.660;5.824;2022-08-23T07:13:18;18.88;;;13.65;;
48526;SDS011;34317;51.660;5.824;2022-08-23T07:15:45;18.77;;;13.23;;
48526;SDS011;34317;51.660;5.824;2022-08-23T07:18:17;16.35;;;13.00;;
48526;SDS011;34317;51.660;5.824;2022-08-23T07:20:44;16.85;;;12.68;;
48526;SDS011;34317;51.660;5.824;2022-08-23T07:23:11;15.43;;;11.65;;
48526;SDS011;34317;51.660;5.824;2022-08-23T07:25:39;15.88;;;11.88;;
48526;SDS011;34317;51.660;5.824;2022-08-23T07:28:09;15.68;;;12.40;;
48526;SDS011;34317;51.660;5.824;2022-08-23T07:30:39;14.35;;;11.30;;
48526;SDS011;34317;51.660;5.824;2022-08-23T07:33:11;12.15;;;9.85;;
48526;SDS011;34317;51.660;5.824;2022-08-23T07:35:58;12.90;;;8.90;;
48526;SDS011;34317;51.660;5.824;2022-08-23T07:38:26;10.57;;;8.18;;
48526;SDS011;34317;51.660;5.824;2022-08-23T07:40:57;17.35;;;8.00;;
48526;SDS011;34317;51.660;5.824;2022-08-23T07:43:24;11.00;;;7.60;;
48526;SDS011;34317;51.660;5.824;2022-08-23T07:45:52;12.23;;;7.78;;
48526;SDS011;34317;51.660;5.824;2022-08-23T07:48:20;9.85;;;6.75;;
48526;SDS011;34317;51.660;5.824;2022-08-23T07:51:17;13.00;;;6.55;;
48526;SDS011;34317;51.660;5.824;2022-08-23T07:53:44;9.95;;;6.82;;
48526;SDS011;34317;51.660;5.824;2022-08-23T07:56:15;11.07;;;6.63;;
48526;SDS011;34317;51.660;5.824;2022-08-23T07:59:04;11.30;;;6.72;;
48526;SDS011;34317;51.660;5.824;2022-08-23T08:01:34;8.85;;;6.22;;
48526;SDS011;34317;51.660;5.824;2022-08-23T08:04:02;10.73;;;6.65;;
48526;SDS011;34317;51.660;5.824;2022-08-23T08:09:05;9.82;;;7.43;;
48526;SDS011;34317;51.660;5.824;2022-08-23T08:11:33;15.68;;;8.23;;
48526;SDS011;34317;51.660;5.824;2022-08-23T08:14:04;10.57;;;7.45;;
48526;SDS011;34317;51.660;5.824;2022-08-23T08:16:39;11.13;;;8.13;;
48526;SDS011;34317;51.660;5.824;2022-08-23T08:19:10;12.55;;;7.97;;
48526;SDS011;34317;51.660;5.824;2022-08-23T08:22:13;13.52;;;8.70;;
48526;SDS011;34317;51.660;5.824;2022-08-23T08:25:07;13.45;;;9.20;;
48526;SDS011;34317;51.660;5.824;2022-08-23T08:27:36;18.92;;;12.13;;
48526;SDS011;34317;51.660;5.824;2022-08-23T08:30:05;18.80;;;13.43;;
48526;SDS011;34317;51.660;5.824;2022-08-23T08:32:33;17.60;;;12.95;;
48526;SDS011;34317;51.660;5.824;2022-08-23T08:35:02;18.83;;;13.40;;
48526;SDS011;34317;51.660;5.824;2022-08-23T08:37:30;18.33;;;12.30;;
48526;SDS011;34317;51.660;5.824;2022-08-23T08:39:58;17.17;;;12.27;;
48526;SDS011;34317;51.660;5.824;2022-08-23T08:42:37;15.43;;;11.65;;
48526;SDS011;34317;51.660;5.824;2022-08-23T08:45:18;16.90;;;11.60;;
48526;SDS011;34317;51.660;5.824;2022-08-23T08:50:31;17.02;;;10.57;;
48526;SDS011;34317;51.660;5.824;2022-08-23T08:56:06;12.77;;;10.13;;
48526;SDS011;34317;51.660;5.824;2022-08-23T08:58:58;14.02;;;9.88;;
48526;SDS011;34317;51.660;5.824;2022-08-23T09:01:29;12.90;;;9.75;;
48526;SDS011;34317;51.660;5.824;2022-08-23T09:04:00;14.73;;;8.48;;
48526;SDS011;34317;51.660;5.824;2022-08-23T09:06:30;16.15;;;9.02;;
48526;SDS011;34317;51.660;5.824;2022-08-23T09:12:11;12.13;;;8.77;;
48526;SDS011;34317;51.660;5.824;2022-08-23T09:14:56;11.27;;;9.27;;
48526;SDS011;34317;51.660;5.824;2022-08-23T09:17:55;16.88;;;8.88;;
48526;SDS011;34317;51.660;5.824;2022-08-23T09:20:25;11.35;;;8.52;;
48526;SDS011;34317;51.660;5.824;2022-08-23T09:23:11;12.80;;;9.20;;
48526;SDS011;34317;51.660;5.824;2022-08-23T09:26:02;15.00;;;8.98;;
48526;SDS011;34317;51.660;5.824;2022-08-23T09:28:36;12.77;;;9.32;;
48526;SDS011;34317;51.660;5.824;2022-08-23T09:31:05;14.48;;;9.65;;
48526;SDS011;34317;51.660;5.824;2022-08-23T09:33:38;18.98;;;10.27;;
48526;SDS011;34317;51.660;5.824;2022-08-23T09:36:23;14.02;;;10.10;;
48526;SDS011;34317;51.660;5.824;2022-08-23T09:38:57;12.48;;;9.75;;
48526;SDS011;34317;51.660;5.824;2022-08-23T09:41:39;14.27;;;9.90;;
48526;SDS011;34317;51.660;5.824;2022-08-23T09:44:11;13.57;;;9.63;;
48526;SDS011;34317;51.660;5.824;2022-08-23T09:46:42;13.40;;;9.60;;
48526;SDS011;34317;51.660;5.824;2022-08-23T09:49:27;11.38;;;7.38;;
48526;SDS011;34317;51.660;5.824;2022-08-23T09:55:01;11.55;;;8.30;;
48526;SDS011;34317;51.660;5.824;2022-08-23T09:57:44;14.38;;;10.02;;
48526;SDS011;34317;51.660;5.824;2022-08-23T10:02:48;13.77;;;8.35;;
48526;SDS011;34317;51.660;5.824;2022-08-23T10:05:28;12.55;;;7.70;;
48526;SDS011;34317;51.660;5.824;2022-08-23T10:08:03;12.65;;;7.28;;
48526;SDS011;34317;51.660;5.824;2022-08-23T10:10:43;11.00;;;6.20;;
48526;SDS011;34317;51.660;5.824;2022-08-23T10:13:20;7.30;;;4.50;;
48526;SDS011;34317;51.660;5.824;2022-08-23T10:15:53;9.80;;;5.70;;
48526;SDS011;34317;51.660;5.824;2022-08-23T10:30:11;4.57;;;2.70;;
48526;SDS011;34317;51.660;5.824;2022-08-23T10:33:01;3.97;;;2.42;;
48526;SDS011;34317;51.660;5.824;2022-08-23T10:38:32;4.10;;;2.08;;
48526;SDS011;34317;51.660;5.824;2022-08-23T10:41:13;4.57;;;2.22;;
48526;SDS011;34317;51.660;5.824;2022-08-23T10:44:04;6.20;;;2.27;;
48526;SDS011;34317;51.660;5.824;2022-08-23T10:46:54;7.25;;;2.50;;
48526;SDS011;34317;51.660;5.824;2022-08-23T10:49:29;7.70;;;3.08;;
48526;SDS011;34317;51.660;5.824;2022-08-23T10:52:02;6.13;;;2.80;;
48526;SDS011;34317;51.660;5.824;2022-08-23T10:54:42;7.53;;;2.70;;
48526;SDS011;34317;51.660;5.824;2022-08-23T10:57:37;5.07;;;2.72;;
48526;SDS011;34317;51.660;5.824;2022-08-23T11:00:08;5.20;;;2.40;;
48526;SDS011;34317;51.660;5.824;2022-08-23T11:02:45;5.25;;;2.33;;
48526;SDS011;34317;51.660;5.824;2022-08-23T11:05:33;4.82;;;2.40;;
48526;SDS011;34317;51.660;5.824;2022-08-23T11:08:29;7.00;;;2.58;;
48526;SDS011;34317;51.660;5.824;2022-08-23T11:11:03;4.00;;;2.25;;
48526;SDS011;34317;51.660;5.824;2022-08-23T11:13:33;4.22;;;2.22;;
48526;SDS011;34317;51.660;5.824;2022-08-23T11:16:12;6.15;;;2.58;;
48526;SDS011;34317;51.660;5.824;2022-08-23T11:18:51;5.47;;;2.50;;
48526;SDS011;34317;51.660;5.824;2022-08-23T11:31:43;6.95;;;3.42;;
48526;SDS011;34317;51.660;5.824;2022-08-23T11:34:18;5.75;;;3.22;;
48526;SDS011;34317;51.660;5.824;2022-08-23T11:45:21;5.80;;;2.45;;
48526;SDS011;34317;51.660;5.824;2022-08-23T11:51:11;5.28;;;2.47;;
48526;SDS011;34317;51.660;5.824;2022-08-23T11:54:17;5.25;;;2.30;;
48526;SDS011;34317;51.660;5.824;2022-08-23T12:02:50;5.35;;;2.72;;
48526;SDS011;34317;51.660;5.824;2022-08-23T12:11:12;5.38;;;2.10;;
48526;SDS011;34317;51.660;5.824;2022-08-23T12:21:24;4.88;;;2.20;;
48526;SDS011;34317;51.660;5.824;2022-08-23T12:23:57;4.85;;;2.20;;
48526;SDS011;34317;51.660;5.824;2022-08-23T12:29:21;4.03;;;1.90;;
48526;SDS011;34317;51.660;5.824;2022-08-23T12:32:21;3.30;;;1.90;;
48526;SDS011;34317;51.660;5.824;2022-08-23T12:37:37;7.45;;;2.00;;
48526;SDS011;34317;51.660;5.824;2022-08-23T12:40:21;5.15;;;2.00;;
48526;SDS011;34317;51.660;5.824;2022-08-23T12:43:06;4.32;;;1.75;;
48526;SDS011;34317;51.660;5.824;2022-08-23T12:45:47;4.30;;;1.80;;
48526;SDS011;34317;51.660;5.824;2022-08-23T12:48:21;3.67;;;1.60;;
48526;SDS011;34317;51.660;5.824;2022-08-23T12:50:52;4.57;;;1.85;;
48526;SDS011;34317;51.660;5.824;2022-08-23T12:53:31;4.78;;;1.60;;
48526;SDS011;34317;51.660;5.824;2022-08-23T12:56:18;3.85;;;1.70;;
48526;SDS011;34317;51.660;5.824;2022-08-23T12:59:03;2.95;;;1.60;;
48526;SDS011;34317;51.660;5.824;2022-08-23T13:01:34;3.42;;;1.50;;
48526;SDS011;34317;51.660;5.824;2022-08-23T13:04:11;4.25;;;1.90;;
48526;SDS011;34317;51.660;5.824;2022-08-23T13:09:14;6.45;;;1.75;;
48526;SDS011;34317;51.660;5.824;2022-08-23T13:11:45;4.90;;;2.13;;
48526;SDS011;34317;51.660;5.824;2022-08-23T13:20:08;3.83;;;2.03;;
48526;SDS011;34317;51.660;5.824;2022-08-23T13:22:54;3.67;;;2.05;;
48526;SDS011;34317;51.660;5.824;2022-08-23T13:25:39;7.05;;;2.33;;
48526;SDS011;34317;51.660;5.824;2022-08-23T13:28:25;3.83;;;1.83;;
48526;SDS011;34317;51.660;5.824;2022-08-23T13:30:59;4.75;;;2.10;;
48526;SDS011;34317;51.660;5.824;2022-08-23T13:33:29;2.65;;;1.77;;
48526;SDS011;34317;51.660;5.824;2022-08-23T13:36:14;2.70;;;1.67;;
48526;SDS011;34317;51.660;5.824;2022-08-23T13:38:43;3.58;;;2.05;;
48526;SDS011;34317;51.660;5.824;2022-08-23T13:41:22;5.43;;;2.03;;
48526;SDS011;34317;51.660;5.824;2022-08-23T13:43:56;3.53;;;1.90;;
48526;SDS011;34317;51.660;5.824;2022-08-23T13:46:25;2.83;;;1.67;;
48526;SDS011;34317;51.660;5.824;2022-08-23T13:49:02;4.30;;;1.88;;
48526;SDS011;34317;51.660;5.824;2022-08-23T13:51:33;5.63;;;1.80;;
48526;SDS011;34317;51.660;5.824;2022-08-23T13:54:14;2.63;;;1.50;;
48526;SDS011;34317;51.660;5.824;2022-08-23T13:56:44;3.92;;;1.60;;
48526;SDS011;34317;51.660;5.824;2022-08-23T13:59:21;3.93;;;1.80;;
48526;SDS011;34317;51.660;5.824;2022-08-23T14:02:02;3.90;;;1.42;;
48526;SDS011;34317;51.660;5.824;2022-08-23T14:04:32;3.60;;;1.48;;
48526;SDS011;34317;51.660;5.824;2022-08-23T14:07:00;2.95;;;1.60;;
48526;SDS011;34317;51.660;5.824;2022-08-23T14:09:27;3.40;;;1.70;;
48526;SDS011;34317;51.660;5.824;2022-08-23T14:11:55;3.97;;;1.70;;
48526;SDS011;34317;51.660;5.824;2022-08-23T14:14:24;3.33;;;1.48;;
48526;SDS011;34317;51.660;5.824;2022-08-23T14:16:57;2.97;;;1.48;;
48526;SDS011;34317;51.660;5.824;2022-08-23T14:19:28;4.75;;;1.60;;
48526;SDS011;34317;51.660;5.824;2022-08-23T14:22:19;2.20;;;1.55;;
48526;SDS011;34317;51.660;5.824;2022-08-23T14:24:46;3.42;;;1.50;;
48526;SDS011;34317;51.660;5.824;2022-08-23T14:27:13;3.17;;;1.30;;
48526;SDS011;34317;51.660;5.824;2022-08-23T14:29:40;3.00;;;1.50;;
48526;SDS011;34317;51.660;5.824;2022-08-23T14:32:07;4.18;;;1.35;;
48526;SDS011;34317;51.660;5.824;2022-08-23T14:34:34;2.25;;;1.33;;
48526;SDS011;34317;51.660;5.824;2022-08-23T14:37:01;3.05;;;1.45;;
48526;SDS011;34317;51.660;5.824;2022-08-23T14:39:49;2.35;;;1.23;;
48526;SDS011;34317;51.660;5.824;2022-08-23T14:42:19;4.57;;;1.40;;
48526;SDS011;34317;51.660;5.824;2022-08-23T14:44:48;3.65;;;1.52;;
48526;SDS011;34317;51.660;5.824;2022-08-23T14:47:16;3.30;;;1.65;;
48526;SDS011;34317;51.660;5.824;2022-08-23T14:49:44;2.70;;;1.42;;
48526;SDS011;34317;51.660;5.824;2022-08-23T14:52:12;4.63;;;1.33;;
48526;SDS011;34317;51.660;5.824;2022-08-23T14:54:39;2.97;;;1.27;;
48526;SDS011;34317;51.660;5.824;2022-08-23T14:57:07;5.47;;;1.42;;
48526;SDS011;34317;51.660;5.824;2022-08-23T14:59:35;7.35;;;1.67;;
48526;SDS011;34317;51.660;5.824;2022-08-23T15:02:02;4.10;;;1.58;;
48526;SDS011;34317;51.660;5.824;2022-08-23T15:04:33;3.35;;;1.30;;
48526;SDS011;34317;51.660;5.824;2022-08-23T15:07:01;3.50;;;1.38;;
48526;SDS011;34317;51.660;5.824;2022-08-23T15:09:45;3.57;;;1.53;;
48526;SDS011;34317;51.660;5.824;2022-08-23T15:12:14;2.28;;;1.40;;
48526;SDS011;34317;51.660;5.824;2022-08-23T15:15:03;3.22;;;1.60;;
48526;SDS011;34317;51.660;5.824;2022-08-23T15:20:18;2.28;;;1.20;;
48526;SDS011;34317;51.660;5.824;2022-08-23T15:22:47;3.15;;;1.23;;
48526;SDS011;34317;51.660;5.824;2022-08-23T15:25:22;3.03;;;1.40;;
48526;SDS011;34317;51.660;5.824;2022-08-23T15:27:57;6.82;;;1.50;;
48526;SDS011;34317;51.660;5.824;2022-08-23T15:30:25;3.92;;;1.40;;
48526;SDS011;34317;51.660;5.824;2022-08-23T15:32:55;3.75;;;1.40;;
48526;SDS011;34317;51.660;5.824;2022-08-23T15:35:23;3.17;;;1.48;;
48526;SDS011;34317;51.660;5.824;2022-08-23T15:37:53;3.75;;;1.52;;
48526;SDS011;34317;51.660;5.824;2022-08-23T15:40:22;2.80;;;1.40;;
48526;SDS011;34317;51.660;5.824;2022-08-23T15:42:49;4.60;;;1.60;;
48526;SDS011;34317;51.660;5.824;2022-08-23T15:45:16;2.22;;;1.35;;
48526;SDS011;34317;51.660;5.824;2022-08-23T15:47:48;3.28;;;1.50;;
48526;SDS011;34317;51.660;5.824;2022-08-23T15:50:19;4.47;;;1.50;;
48526;SDS011;34317;51.660;5.824;2022-08-23T15:52:50;3.88;;;1.42;;
48526;SDS011;34317;51.660;5.824;2022-08-23T15:55:18;2.60;;;1.40;;
48526;SDS011;34317;51.660;5.824;2022-08-23T15:57:46;2.53;;;1.40;;
48526;SDS011;34317;51.660;5.824;2022-08-23T16:00:16;2.13;;;1.30;;
48526;SDS011;34317;51.660;5.824;2022-08-23T16:02:45;3.53;;;1.67;;
48526;SDS011;34317;51.660;5.824;2022-08-23T16:05:32;2.67;;;1.55;;
48526;SDS011;34317;51.660;5.824;2022-08-23T16:07:59;3.55;;;1.50;;
48526;SDS011;34317;51.660;5.824;2022-08-23T16:10:26;3.25;;;1.58;;
48526;SDS011;34317;51.660;5.824;2022-08-23T16:12:54;2.42;;;1.30;;
48526;SDS011;34317;51.660;5.824;2022-08-23T16:15:21;4.20;;;1.50;;
48526;SDS011;34317;51.660;5.824;2022-08-23T16:17:48;2.33;;;1.23;;
48526;SDS011;34317;51.660;5.824;2022-08-23T16:20:16;2.55;;;1.30;;
48526;SDS011;34317;51.660;5.824;2022-08-23T16:22:43;2.13;;;1.20;;
48526;SDS011;34317;51.660;5.824;2022-08-23T16:25:10;3.10;;;1.33;;
48526;SDS011;34317;51.660;5.824;2022-08-23T16:27:37;2.72;;;1.20;;
48526;SDS011;34317;51.660;5.824;2022-08-23T16:30:04;2.95;;;1.40;;
48526;SDS011;34317;51.660;5.824;2022-08-23T16:32:35;3.38;;;1.15;;
48526;SDS011;34317;51.660;5.824;2022-08-23T16:35:03;4.43;;;1.20;;
48526;SDS011;34317;51.660;5.824;2022-08-23T16:37:30;2.85;;;1.20;;
48526;SDS011;34317;51.660;5.824;2022-08-23T16:39:58;3.08;;;1.17;;
48526;SDS011;34317;51.660;5.824;2022-08-23T16:42:25;3.03;;;1.30;;
48526;SDS011;34317;51.660;5.824;2022-08-23T16:44:52;3.10;;;1.20;;
48526;SDS011;34317;51.660;5.824;2022-08-23T16:47:19;2.22;;;1.20;;
48526;SDS011;34317;51.660;5.824;2022-08-23T16:49:47;2.20;;;1.20;;
48526;SDS011;34317;51.660;5.824;2022-08-23T16:52:14;3.20;;;1.33;;